Time;durP1;ratioP1;P1;durP2;ratioP2;P2;SDS_P1;SDS_P2;PMS_P1;PMS_P2;Temp;Humidity;BMP_temperature;BMP_pressure;BME280_temperature;BME280_humidity;BME280_pressure;Samples;Min_cycle;Max_cycle;Signal;HPM_P1;HPM_P2
2022/06/19 00:01:49;;;;;;;7.35;1.50;;;13.50;99.90;;;;;;5075382;28;20174;-23
2022/06/19 00:04:15;;;;;;;8.77;2.88;;;13.50;99.90;;;;;;5075341;28;20044;-23
2022/06/19 00:06:42;;;;;;;6.85;1.40;;;13.40;99.90;;;;;;5074945;28;20045;-23
2022/06/19 00:09:08;;;;;;;7.93;1.55;;;13.40;99.90;;;;;;5074818;28;20070;-23
2022/06/19 00:11:35;;;;;;;9.88;1.63;;;13.40;99.90;;;;;;5074505;28;20056;-23
2022/06/19 00:14:01;;;;;;;7.80;1.33;;;13.40;99.90;;;;;;5074821;28;20045;-23
2022/06/19 00:16:27;;;;;;;10.27;1.95;;;13.40;99.90;;;;;;5075063;28;20040;-23
2022/06/19 00:18:53;;;;;;;16.75;2.10;;;13.40;99.90;;;;;;5074019;28;20536;-23
2022/06/19 00:21:19;;;;;;;9.70;1.58;;;13.40;99.90;;;;;;5073506;28;20044;-25
2022/06/19 00:23:45;;;;;;;10.88;1.48;;;13.50;99.90;;;;;;5073379;28;20048;-25
2022/06/19 00:26:12;;;;;;;11.38;1.67;;;13.50;99.90;;;;;;5073238;28;20056;-26
2022/06/19 00:28:40;;;;;;;10.82;1.75;;;13.50;99.90;;;;;;5073608;28;20054;-26
2022/06/19 00:31:05;;;;;;;13.00;1.98;;;13.50;99.90;;;;;;5074559;28;20052;-26
2022/06/19 00:33:31;;;;;;;11.90;2.15;;;13.50;99.90;;;;;;5073182;28;20483;-26
2022/06/19 00:35:57;;;;;;;10.68;1.77;;;13.50;99.90;;;;;;5074425;28;20044;-26
2022/06/19 00:38:23;;;;;;;14.10;2.28;;;13.50;99.90;;;;;;5073185;28;20048;-26
2022/06/19 00:40:49;;;;;;;12.93;2.67;;;13.60;99.90;;;;;;5074355;28;20060;-26
2022/06/19 00:43:15;;;;;;;17.42;2.30;;;13.60;99.90;;;;;;5073099;28;20052;-26
2022/06/19 00:45:50;;;;;;;10.95;1.80;;;13.60;99.90;;;;;;5072997;28;20044;-26
2022/06/19 00:48:24;;;;;;;11.85;1.90;;;13.60;99.90;;;;;;5074286;28;20049;-26
2022/06/19 00:50:52;;;;;;;15.82;2.47;;;13.70;99.90;;;;;;5074199;28;20048;-26
2022/06/19 00:53:24;;;;;;;15.30;2.13;;;13.70;99.90;;;;;;5074636;28;20044;-26
2022/06/19 00:55:51;;;;;;;14.18;2.85;;;13.70;99.90;;;;;;5074966;28;20049;-26
2022/06/19 00:58:21;;;;;;;14.23;2.63;;;13.80;99.90;;;;;;5072632;28;20504;-26
2022/06/19 01:00:51;;;;;;;13.77;3.00;;;13.70;1.00;;;;;;5074038;28;20044;-26
2022/06/19 01:03:45;;;;;;;11.27;2.58;;;13.80;1.00;;;;;;5074411;28;20467;-26
2022/06/19 01:06:11;;;;;;;13.23;1.77;;;13.80;1.00;;;;;;5074730;28;20048;-26
2022/06/19 01:08:37;;;;;;;10.95;2.08;;;13.80;1.00;;;;;;5074782;28;20074;-26
2022/06/19 01:11:04;;;;;;;15.55;2.28;;;13.80;1.00;;;;;;5073750;28;20048;-26
2022/06/19 01:13:31;;;;;;;10.38;1.85;;;13.80;1.00;;;;;;5072737;28;20488;-25
2022/06/19 01:16:00;;;;;;;13.18;2.10;;;13.80;1.00;;;;;;5073851;28;20041;-26
2022/06/19 01:18:25;;;;;;;19.60;3.20;;;13.80;1.00;;;;;;5073788;28;20147;-26
2022/06/19 01:21:00;;;;;;;13.57;2.03;;;13.80;1.00;;;;;;5073791;28;20040;-26
2022/06/19 01:24:01;;;;;;;14.77;2.28;;;13.80;1.00;;;;;;5073661;28;20162;-26
2022/06/19 01:26:30;;;;;;;18.73;2.80;;;13.80;1.00;;;;;;5073593;28;20135;-26
2022/06/19 01:28:56;;;;;;;16.25;2.80;;;13.80;1.00;;;;;;5072679;28;20536;-26
2022/06/19 01:31:55;;;;;;;15.52;2.42;;;13.90;1.00;;;;;;5072499;28;20048;-26
2022/06/19 01:34:35;;;;;;;15.68;2.15;;;13.90;44.90;;;;;;5072440;28;20044;-26
2022/06/19 01:37:25;;;;;;;16.17;2.95;;;14.00;1.00;;;;;;5073655;28;20127;-25
2022/06/19 01:39:58;;;;;;;19.75;2.72;;;14.00;1.00;;;;;;5073235;28;20469;-26
2022/06/19 01:42:24;;;;;;;17.65;3.17;;;14.00;1.00;;;;;;5074108;28;20084;-26
2022/06/19 01:44:53;;;;;;;18.30;2.63;;;14.00;1.00;;;;;;5073498;28;20047;-26
2022/06/19 01:47:20;;;;;;;15.52;2.30;;;14.10;1.00;;;;;;5073413;28;20048;-26
2022/06/19 01:49:50;;;;;;;16.65;2.20;;;14.10;1.00;;;;;;5072283;28;20060;-26
2022/06/19 01:52:18;;;;;;;21.23;3.47;;;14.10;1.00;;;;;;5074323;28;20425;-26
2022/06/19 01:54:49;;;;;;;17.10;2.78;;;14.10;1.00;;;;;;5073438;28;20049;-25
2022/06/19 01:57:16;;;;;;;17.65;3.00;;;14.10;1.00;;;;;;5073434;28;20210;-26
2022/06/19 01:59:44;;;;;;;16.52;2.72;;;14.10;1.00;;;;;;5073370;28;20132;-26
2022/06/19 02:02:12;;;;;;;9.82;2.45;;;14.00;1.00;;;;;;5074165;28;20064;-26
2022/06/19 02:04:38;;;;;;;18.98;2.45;;;14.00;1.00;;;;;;5073019;28;20490;-25
2022/06/19 02:07:10;;;;;;;17.60;3.38;;;14.00;1.00;;;;;;5073252;28;20106;-26
2022/06/19 02:09:36;;;;;;;19.95;3.35;;;14.00;1.00;;;;;;5073300;28;20060;-26
2022/06/19 02:12:03;;;;;;;13.20;2.50;;;14.00;1.00;;;;;;5073357;28;20044;-26
2022/06/19 02:14:30;;;;;;;15.02;2.85;;;14.00;1.00;;;;;;5073242;28;20045;-26
2022/06/19 02:16:59;;;;;;;22.15;2.65;;;14.00;1.00;;;;;;5075957;28;20110;-25
2022/06/19 02:19:25;;;;;;;16.17;2.85;;;14.00;1.00;;;;;;5077561;28;20056;-25
2022/06/19 02:21:55;;;;;;;17.63;3.15;;;14.00;1.00;;;;;;5077031;28;20053;-26
2022/06/19 02:24:26;;;;;;;16.30;2.75;;;14.00;1.00;;;;;;5076952;28;20387;-25
2022/06/19 02:26:54;;;;;;;21.80;3.17;;;14.00;1.00;;;;;;5076597;28;20060;-26
2022/06/19 02:29:21;;;;;;;17.55;3.13;;;13.80;1.00;;;;;;5077665;28;20415;-26
2022/06/19 02:31:52;;;;;;;13.93;2.45;;;13.90;1.00;;;;;;5076884;28;20504;-26
2022/06/19 02:34:32;;;;;;;17.95;3.20;;;13.90;1.00;;;;;;5076122;28;20053;-26
2022/06/19 02:37:01;;;;;;;18.50;2.17;;;13.90;1.00;;;;;;5077096;28;20044;-26
2022/06/19 02:39:59;;;;;;;16.75;2.60;;;13.90;1.00;;;;;;5058718;28;20056;-26
2022/06/19 02:42:29;;;;;;;16.48;2.95;;;13.90;1.00;;;;;;5073468;28;20044;-26
2022/06/19 02:44:58;;;;;;;17.75;2.72;;;13.80;1.00;;;;;;5077467;28;20080;-26
2022/06/19 02:47:26;;;;;;;18.58;3.10;;;13.80;1.00;;;;;;5076476;28;20087;-26
2022/06/19 02:49:53;;;;;;;14.85;2.97;;;13.80;1.00;;;;;;5075785;28;20106;-26
2022/06/19 02:52:19;;;;;;;18.30;2.92;;;13.80;1.00;;;;;;5075453;28;20478;-25
2022/06/19 02:54:45;;;;;;;17.73;2.63;;;13.70;1.00;;;;;;5058494;28;20088;-25
2022/06/19 02:57:13;;;;;;;17.38;2.22;;;13.70;1.00;;;;;;5076008;28;20441;-25
2022/06/19 02:59:38;;;;;;;15.40;3.05;;;13.70;1.00;;;;;;5076273;28;20051;-26
2022/06/19 03:02:05;;;;;;;12.13;2.30;;;13.60;1.00;;;;;;5076278;28;20135;-26
2022/06/19 03:04:33;;;;;;;11.15;2.15;;;13.60;1.00;;;;;;5076534;28;20044;-26
2022/06/19 03:06:59;;;;;;;15.13;2.17;;;13.60;1.00;;;;;;5076158;28;20045;-26
2022/06/19 03:09:25;;;;;;;15.43;2.97;;;13.50;1.00;;;;;;5075217;28;20060;-26
2022/06/19 03:11:51;;;;;;;13.48;2.75;;;13.60;1.00;;;;;;5076045;28;20432;-26
2022/06/19 03:14:17;;;;;;;14.18;2.28;;;13.60;1.00;;;;;;5058487;28;20044;-26
2022/06/19 03:16:43;;;;;;;14.95;2.40;;;13.60;1.00;;;;;;5076560;28;20045;-26
2022/06/19 03:19:09;;;;;;;11.13;1.80;;;13.60;1.00;;;;;;5075913;28;20052;-26
2022/06/19 03:21:35;;;;;;;14.40;3.35;;;13.60;1.00;;;;;;5076169;28;20056;-26
2022/06/19 03:24:01;;;;;;;12.70;2.38;;;13.70;1.00;;;;;;5076132;28;20123;-26
2022/06/19 03:26:26;;;;;;;12.20;3.15;;;13.70;1.00;;;;;;5075291;28;20524;-26
2022/06/19 03:28:53;;;;;;;12.60;2.13;;;13.70;1.00;;;;;;5075023;28;20056;-26
2022/06/19 03:31:22;;;;;;;15.98;2.63;;;13.70;1.00;;;;;;5075747;28;20048;-25
2022/06/19 03:33:52;;;;;;;20.88;2.78;;;13.70;1.00;;;;;;5075634;28;20087;-24
2022/06/19 03:36:21;;;;;;;22.58;4.07;;;13.40;1.00;;;;;;5075500;28;20041;-22
2022/06/19 03:38:49;;;;;;;20.95;2.70;;;12.90;90.40;;;;;;5058094;28;20048;-21
2022/06/19 03:41:15;;;;;;;35.58;3.20;;;12.50;99.90;;;;;;5075412;28;20136;-19
2022/06/19 03:43:41;;;;;;;17.75;3.30;;;12.30;99.90;;;;;;5075416;28;20119;-19
2022/06/19 03:46:14;;;;;;;20.45;3.65;;;12.00;1.00;;;;;;5075298;28;20040;-19
2022/06/19 03:48:50;;;;;;;26.33;3.45;;;11.80;1.00;;;;;;5075706;28;20127;-19
2022/06/19 03:51:16;;;;;;;22.70;3.95;;;11.60;63.10;;;;;;5058519;28;20044;-19
2022/06/19 03:53:43;;;;;;;26.38;4.03;;;11.50;99.90;;;;;;5075851;28;20088;-20
2022/06/19 03:56:14;;;;;;;22.58;4.25;;;11.40;99.90;;;;;;5074231;28;20110;-20
2022/06/19 03:58:45;;;;;;;28.60;2.85;;;11.40;1.00;;;;;;5074250;28;20478;-20
2022/06/19 04:01:13;;;;;;;24.25;4.60;;;11.30;1.00;;;;;;5075786;28;20047;-20
2022/06/19 04:03:40;;;;;;;26.05;3.63;;;11.30;1.00;;;;;;5075089;28;20051;-20
2022/06/19 04:06:06;;;;;;;18.23;3.13;;;11.30;28.40;;;;;;5075504;28;20041;-20
2022/06/19 04:08:32;;;;;;;20.45;3.42;;;11.30;46.00;;;;;;5075035;28;20127;-19
2022/06/19 04:10:58;;;;;;;33.67;5.20;;;11.30;85.60;;;;;;5073539;28;20088;-20
2022/06/19 04:13:23;;;;;;;22.38;3.13;;;11.30;99.90;;;;;;5074877;28;20048;-20
2022/06/19 04:15:49;;;;;;;21.80;3.10;;;11.30;99.90;;;;;;5073833;28;20052;-19
2022/06/19 04:18:15;;;;;;;25.73;3.53;;;11.30;99.90;;;;;;5074070;28;20044;-19
2022/06/19 04:20:40;;;;;;;25.80;4.13;;;11.30;99.90;;;;;;5074964;28;20102;-20
2022/06/19 04:23:09;;;;;;;28.73;3.75;;;11.30;99.90;;;;;;5075243;28;20055;-21
2022/06/19 04:25:35;;;;;;;20.05;2.83;;;11.20;99.90;;;;;;5074243;28;20098;-25
2022/06/19 04:28:01;;;;;;;28.25;3.75;;;11.20;99.90;;;;;;5074649;28;20048;-24
2022/06/19 04:30:27;;;;;;;24.52;3.90;;;11.10;99.90;;;;;;5074163;28;20475;-24
2022/06/19 04:32:53;;;;;;;27.23;3.50;;;11.20;99.90;;;;;;5073540;28;20475;-25
2022/06/19 04:35:18;;;;;;;25.15;3.75;;;11.20;99.90;;;;;;5074439;28;20067;-26
2022/06/19 04:37:44;;;;;;;25.17;3.45;;;11.20;99.90;;;;;;5074443;28;20489;-25
2022/06/19 04:40:12;;;;;;;27.35;3.92;;;11.20;99.90;;;;;;5073947;28;20051;-25
2022/06/19 04:42:37;;;;;;;22.25;3.60;;;11.20;99.90;;;;;;5074854;28;20052;-25
2022/06/19 04:45:03;;;;;;;28.55;4.05;;;11.30;99.90;;;;;;5074284;28;20056;-24
2022/06/19 04:47:29;;;;;;;20.58;3.30;;;11.30;99.90;;;;;;5074937;28;20044;-24
2022/06/19 04:49:55;;;;;;;27.90;3.22;;;11.30;99.90;;;;;;5072995;28;20534;-24
2022/06/19 04:52:21;;;;;;;24.02;3.88;;;11.30;99.90;;;;;;5074429;28;20051;-24
2022/06/19 04:54:47;;;;;;;26.85;4.07;;;11.30;99.90;;;;;;5074367;28;20485;-24
2022/06/19 04:57:13;;;;;;;18.85;3.40;;;11.40;99.90;;;;;;5074121;28;20489;-23
2022/06/19 04:59:38;;;;;;;33.83;4.10;;;11.40;99.90;;;;;;5074657;28;20044;-24
2022/06/19 05:02:04;;;;;;;31.67;4.18;;;11.40;99.90;;;;;;5074014;28;20080;-23
2022/06/19 05:04:30;;;;;;;23.60;4.55;;;11.50;99.90;;;;;;5072731;28;20048;-24
2022/06/19 05:06:55;;;;;;;24.08;3.95;;;11.50;99.90;;;;;;5073897;28;20053;-24
2022/06/19 05:09:21;;;;;;;23.67;4.25;;;11.50;99.90;;;;;;5073956;28;20055;-24
2022/06/19 05:11:47;;;;;;;29.67;4.07;;;11.50;99.90;;;;;;5073771;28;20052;-24
2022/06/19 05:14:13;;;;;;;33.03;3.80;;;11.60;99.90;;;;;;5073848;28;20043;-24
2022/06/19 05:16:39;;;;;;;37.30;4.80;;;11.60;99.90;;;;;;5072641;28;20466;-23
2022/06/19 05:19:05;;;;;;;29.08;3.47;;;11.60;99.90;;;;;;5074067;28;20403;-23
2022/06/19 05:21:31;;;;;;;26.08;3.17;;;11.60;99.90;;;;;;5055837;28;20055;-23
2022/06/19 05:23:58;;;;;;;31.00;3.28;;;11.50;99.90;;;;;;5074284;28;20044;-24
2022/06/19 05:26:30;;;;;;;17.35;2.65;;;11.40;99.90;;;;;;5073817;28;20056;-23
2022/06/19 05:28:56;;;;;;;26.65;3.38;;;11.30;99.90;;;;;;5073654;28;20053;-23
2022/06/19 05:31:23;;;;;;;21.70;3.40;;;11.20;99.90;;;;;;5072656;28;20127;-23
2022/06/19 05:33:50;;;;;;;26.50;3.30;;;11.20;99.90;;;;;;5073668;28;20505;-23
2022/06/19 05:36:16;;;;;;;22.02;2.53;;;11.00;99.90;;;;;;5074109;28;20055;-23
2022/06/19 05:38:42;;;;;;;21.73;2.60;;;11.20;99.90;;;;;;5073579;28;20059;-23
2022/06/19 05:41:08;;;;;;;19.25;2.63;;;11.10;99.90;;;;;;5073525;28;20401;-23
2022/06/19 05:43:35;;;;;;;25.30;2.83;;;11.10;99.90;;;;;;5055347;28;20051;-23
2022/06/19 05:46:05;;;;;;;16.50;2.63;;;11.10;99.90;;;;;;5073094;28;20398;-23
2022/06/19 05:48:31;;;;;;;22.20;2.75;;;11.00;99.90;;;;;;5073483;28;20098;-23
2022/06/19 05:51:05;;;;;;;19.60;3.20;;;11.10;99.90;;;;;;5074708;28;20059;-23
2022/06/19 05:53:34;;;;;;;22.88;3.30;;;11.20;99.90;;;;;;5078167;28;20406;-23
2022/06/19 05:55:59;;;;;;;22.52;3.28;;;11.30;99.90;;;;;;5076497;28;20462;-23
2022/06/19 05:58:25;;;;;;;21.23;2.90;;;11.40;99.90;;;;;;5077439;28;20049;-23
2022/06/19 06:00:51;;;;;;;19.85;2.30;;;11.40;99.90;;;;;;5077450;28;20049;-23
2022/06/19 06:03:19;;;;;;;17.00;2.33;;;11.50;99.90;;;;;;5077399;28;20482;-23
2022/06/19 06:05:45;;;;;;;18.77;2.47;;;11.50;99.90;;;;;;5077264;28;20091;-23
2022/06/19 06:08:12;;;;;;;17.23;2.63;;;11.50;99.90;;;;;;5076122;28;20072;-24
2022/06/19 06:10:38;;;;;;;17.45;2.13;;;11.50;99.90;;;;;;5077155;28;20059;-23
2022/06/19 06:13:04;;;;;;;19.52;2.65;;;11.50;99.90;;;;;;5075943;28;20453;-24
2022/06/19 06:15:30;;;;;;;19.52;2.88;;;11.40;99.90;;;;;;5075966;28;20044;-23
2022/06/19 06:17:59;;;;;;;16.98;2.33;;;11.40;99.90;;;;;;5077333;28;20098;-24
2022/06/19 06:20:25;;;;;;;16.35;2.53;;;11.40;99.90;;;;;;5076765;28;20432;-24
2022/06/19 06:22:51;;;;;;;15.88;2.05;;;11.30;99.90;;;;;;5076971;28;20045;-24
2022/06/19 06:25:16;;;;;;;17.75;2.88;;;11.40;99.90;;;;;;5076920;28;20402;-23
2022/06/19 06:27:42;;;;;;;13.60;2.20;;;11.50;99.90;;;;;;5075222;28;20098;-23
2022/06/19 06:30:10;;;;;;;13.45;1.98;;;11.70;99.90;;;;;;5076844;28;20084;-24
2022/06/19 06:32:35;;;;;;;18.83;2.42;;;11.80;99.90;;;;;;5075793;28;20379;-24
2022/06/19 06:35:01;;;;;;;18.15;2.20;;;11.90;99.90;;;;;;5059685;28;20052;-24
2022/06/19 06:37:27;;;;;;;12.98;1.63;;;11.90;99.90;;;;;;5076664;28;20053;-24
2022/06/19 06:39:52;;;;;;;15.45;1.98;;;11.90;99.90;;;;;;5076627;28;20047;-24
2022/06/19 06:42:18;;;;;;;16.90;2.47;;;12.00;99.90;;;;;;5076583;28;20134;-23
2022/06/19 06:44:44;;;;;;;14.57;2.22;;;12.10;99.90;;;;;;5077054;28;20071;-23
2022/06/19 06:47:10;;;;;;;17.00;2.83;;;12.10;99.90;;;;;;5059391;28;20063;-24
2022/06/19 06:49:35;;;;;;;10.32;2.25;;;12.10;99.90;;;;;;5076420;28;20048;-24
2022/06/19 06:52:01;;;;;;;14.63;2.20;;;12.20;99.90;;;;;;5076144;28;20055;-24
2022/06/19 06:54:27;;;;;;;20.20;2.55;;;12.30;99.90;;;;;;5076158;28;20086;-24
2022/06/19 06:56:54;;;;;;;12.05;2.08;;;12.30;99.90;;;;;;5075888;28;20048;-23
2022/06/19 06:59:20;;;;;;;11.02;2.25;;;12.40;99.90;;;;;;5075304;28;20086;-23
2022/06/19 07:01:46;;;;;;;11.23;1.73;;;12.30;99.90;;;;;;5076072;28;20056;-23
2022/06/19 07:04:12;;;;;;;14.32;2.17;;;12.30;99.90;;;;;;5076923;28;20489;-23
2022/06/19 07:06:37;;;;;;;13.20;1.92;;;12.30;99.90;;;;;;5075076;28;20444;-23
2022/06/19 07:09:04;;;;;;;14.05;2.50;;;12.40;99.90;;;;;;5076083;28;20044;-23
2022/06/19 07:11:40;;;;;;;13.20;2.20;;;12.40;99.90;;;;;;5074739;28;20529;-23
2022/06/19 07:14:06;;;;;;;17.13;2.30;;;12.30;99.90;;;;;;5076878;28;20484;-23
2022/06/19 07:16:32;;;;;;;13.63;2.03;;;12.30;99.90;;;;;;5075314;28;20109;-23
2022/06/19 07:18:58;;;;;;;11.85;1.95;;;12.30;99.90;;;;;;5075652;28;20049;-23
2022/06/19 07:21:24;;;;;;;13.70;2.42;;;12.30;99.90;;;;;;5075982;28;20508;-23
2022/06/19 07:23:49;;;;;;;20.08;3.10;;;12.40;99.90;;;;;;5075603;28;20055;-24
2022/06/19 07:26:18;;;;;;;15.05;1.90;;;12.60;99.90;;;;;;5075729;28;20151;-23
2022/06/19 07:28:44;;;;;;;13.05;1.63;;;12.80;99.90;;;;;;5075814;28;20550;-23
2022/06/19 07:31:10;;;;;;;12.95;2.28;;;12.80;99.90;;;;;;5076384;28;20159;-23
2022/06/19 07:33:37;;;;;;;8.30;1.65;;;12.70;99.90;;;;;;5041784;28;20048;-23
2022/06/19 07:36:08;;;;;;;15.40;1.83;;;12.80;99.90;;;;;;5075686;28;20037;-23
2022/06/19 07:38:34;;;;;;;12.38;1.67;;;12.70;99.90;;;;;;5075375;28;20063;-22
2022/06/19 07:40:59;;;;;;;17.00;2.53;;;12.60;99.90;;;;;;5075624;28;20498;-23
2022/06/19 07:43:26;;;;;;;13.30;2.35;;;12.60;99.90;;;;;;5075571;28;20513;-23
2022/06/19 07:45:53;;;;;;;11.00;1.63;;;12.60;99.90;;;;;;5076031;28;20466;-22
2022/06/19 07:51:03;;;;;;;12.05;2.28;;;12.80;99.90;;;;;;5076263;28;20093;-22
2022/06/19 07:53:29;;;;;;;10.13;1.73;;;12.80;99.90;;;;;;5075299;28;20083;-22
2022/06/19 07:55:55;;;;;;;11.20;1.73;;;12.90;99.90;;;;;;5074622;28;20049;-22
2022/06/19 07:58:21;;;;;;;13.90;2.33;;;12.80;99.90;;;;;;5075272;28;20048;-22
2022/06/19 08:00:47;;;;;;;14.45;2.63;;;12.80;99.90;;;;;;5076016;28;20467;-23
2022/06/19 08:03:12;;;;;;;12.50;1.85;;;12.80;99.90;;;;;;5075099;28;20048;-22
2022/06/19 08:05:41;;;;;;;12.45;1.55;;;12.90;99.90;;;;;;5075187;28;20052;-22
2022/06/19 08:08:14;;;;;;;10.32;1.73;;;12.90;99.90;;;;;;5074992;28;20044;-22
2022/06/19 08:10:43;;;;;;;9.35;1.45;;;12.90;99.90;;;;;;5074966;28;20406;-22
2022/06/19 08:13:10;;;;;;;10.00;1.50;;;13.00;99.90;;;;;;5074347;28;20053;-23
2022/06/19 08:15:36;;;;;;;13.02;1.65;;;13.00;99.90;;;;;;5075330;28;20091;-23
2022/06/19 08:18:02;;;;;;;12.45;2.33;;;13.00;99.90;;;;;;5073617;28;20047;-23
2022/06/19 08:20:29;;;;;;;10.02;2.15;;;13.10;99.90;;;;;;5074763;28;20037;-22
2022/06/19 08:22:56;;;;;;;9.02;1.42;;;13.10;99.90;;;;;;5074016;28;20175;-22
2022/06/19 08:25:23;;;;;;;7.43;1.55;;;13.20;99.90;;;;;;5074449;28;20040;-22
2022/06/19 08:27:50;;;;;;;11.05;2.10;;;13.50;99.90;;;;;;5075720;28;20044;-22
2022/06/19 08:30:29;;;;;;;11.27;2.20;;;13.70;99.90;;;;;;5074543;28;20052;-22
2022/06/19 08:32:55;;;;;;;9.55;1.98;;;13.80;99.90;;;;;;5057602;28;20183;-23
2022/06/19 08:35:22;;;;;;;10.02;1.70;;;14.00;99.90;;;;;;5074426;28;20237;-22
2022/06/19 08:37:52;;;;;;;10.55;1.70;;;14.20;99.90;;;;;;5072875;28;20486;-22
2022/06/19 08:40:27;;;;;;;7.97;1.60;;;14.20;1.00;;;;;;5056862;28;20371;-22
2022/06/19 08:43:20;;;;;;;8.07;1.13;;;14.20;1.00;;;;;;5075217;28;20049;-22
2022/06/19 08:46:12;;;;;;;7.28;1.17;;;14.00;99.90;;;;;;5074286;28;20087;-22
2022/06/19 08:48:41;;;;;;;7.35;1.23;;;13.80;1.00;;;;;;5073844;28;20505;-22
2022/06/19 08:51:35;;;;;;;5.97;1.77;;;13.60;1.00;;;;;;5056459;28;20093;-22
2022/06/19 08:54:08;;;;;;;7.25;1.10;;;13.60;1.00;;;;;;5074926;28;20352;-22
2022/06/19 08:56:48;;;;;;;6.18;1.23;;;13.60;1.00;;;;;;5074144;28;20047;-22
2022/06/19 08:59:14;;;;;;;6.57;0.93;;;13.70;1.00;;;;;;5073817;28;20055;-22
2022/06/19 09:02:07;;;;;;;4.47;1.17;;;13.80;99.90;;;;;;5073800;28;20143;-22
2022/06/19 09:07:51;;;;;;;8.98;1.40;;;14.30;99.90;;;;;;5073881;28;20048;-23
2022/06/19 09:10:41;;;;;;;8.40;2.03;;;14.60;99.90;;;;;;5074018;28;20540;-22
2022/06/19 09:13:12;;;;;;;6.40;0.90;;;14.70;99.90;;;;;;5073475;28;20051;-23
2022/06/19 09:16:24;;;;;;;5.63;0.80;;;15.00;99.90;;;;;;5072489;28;20048;-23
2022/06/19 09:19:05;;;;;;;6.38;0.93;;;15.30;91.30;;;;;;5073571;28;20084;-23
2022/06/19 09:21:41;;;;;;;5.45;1.25;;;15.40;99.90;;;;;;5074156;28;20044;-23
2022/06/19 09:24:15;;;;;;;4.15;0.70;;;15.60;99.90;;;;;;5073629;28;20109;-23
2022/06/19 09:26:50;;;;;;;8.25;1.40;;;15.80;99.90;;;;;;5071957;28;20497;-23
2022/06/19 09:29:24;;;;;;;6.70;1.45;;;16.10;1.00;;;;;;5073635;28;20062;-23
2022/06/19 09:32:09;;;;;;;8.73;1.08;;;16.20;99.90;;;;;;5074535;28;20041;-23
2022/06/19 09:34:45;;;;;;;7.20;0.98;;;16.30;1.00;;;;;;5073529;28;20094;-23
2022/06/19 09:37:44;;;;;;;6.80;0.80;;;16.20;1.00;;;;;;5074166;28;20084;-23
2022/06/19 09:40:18;;;;;;;3.22;0.80;;;16.20;99.90;;;;;;5073023;28;20178;-23
2022/06/19 09:42:57;;;;;;;5.43;1.55;;;16.20;1.00;;;;;;5073559;28;20502;-23
2022/06/19 09:45:28;;;;;;;5.38;1.38;;;16.20;1.00;;;;;;5073541;28;20040;-23
2022/06/19 09:47:56;;;;;;;7.82;1.35;;;16.40;1.00;;;;;;5073424;28;20041;-23
2022/06/19 09:50:51;;;;;;;11.02;1.17;;;16.50;1.00;;;;;;5073558;28;20056;-23
2022/06/19 09:53:31;;;;;;;5.53;1.10;;;16.60;99.90;;;;;;5070711;28;20056;-23
2022/06/19 09:56:04;;;;;;;7.45;1.27;;;16.80;1.00;;;;;;5073512;28;20070;-23
2022/06/19 09:58:38;;;;;;;7.18;1.40;;;16.90;99.90;;;;;;5073490;28;20059;-23
2022/06/19 10:01:05;;;;;;;3.72;0.82;;;16.80;99.90;;;;;;5072777;28;20095;-23
2022/06/19 10:03:44;;;;;;;8.30;1.08;;;16.80;99.90;;;;;;5074221;28;20084;-24
2022/06/19 10:06:25;;;;;;;8.38;1.05;;;16.80;99.90;;;;;;5074066;28;20045;-23
2022/06/19 10:08:58;;;;;;;7.47;1.27;;;16.60;94.80;;;;;;5073415;28;20041;-23
2022/06/19 10:11:35;;;;;;;4.90;0.85;;;16.70;99.90;;;;;;5073848;28;20090;-24
2022/06/19 10:14:04;;;;;;;3.42;0.75;;;16.80;99.90;;;;;;5073388;28;20131;-24
2022/06/19 10:16:30;;;;;;;5.03;0.80;;;17.00;99.90;;;;;;5072545;28;20132;-24
2022/06/19 10:18:56;;;;;;;5.35;0.75;;;16.80;13.70;;;;;;5073239;28;20155;-24
2022/06/19 10:24:47;;;;;;;4.18;1.05;;;17.20;15.20;;;;;;5073473;28;20052;-24
2022/06/19 10:27:24;;;;;;;5.22;0.90;;;17.60;99.90;;;;;;5072803;28;20383;-24
2022/06/19 10:30:11;;;;;;;1.83;0.63;;;17.80;22.60;;;;;;5073166;28;20088;-24
2022/06/19 10:33:09;;;;;;;2.85;0.70;;;18.00;45.10;;;;;;5073985;28;20044;-24
2022/06/19 10:35:58;;;;;;;4.10;0.82;;;18.30;99.90;;;;;;5073136;28;20123;-24
2022/06/19 10:38:42;;;;;;;4.88;0.65;;;18.60;1.00;;;;;;5075500;28;20444;-24
2022/06/19 10:44:23;;;;;;;6.28;0.88;;;18.50;1.00;;;;;;5076644;28;20053;-24
2022/06/19 10:46:56;;;;;;;3.40;0.65;;;18.40;1.00;;;;;;5059099;28;20047;-25
2022/06/19 10:49:53;;;;;;;2.72;0.38;;;18.20;99.90;;;;;;5076933;28;20394;-25
2022/06/19 10:52:28;;;;;;;10.90;1.52;;;18.00;99.90;;;;;;5076474;28;20045;-25
2022/06/19 10:54:57;;;;;;;4.45;0.90;;;17.70;99.90;;;;;;5077346;28;20048;-25
2022/06/19 10:57:30;;;;;;;4.88;0.70;;;17.40;99.90;;;;;;5075460;28;20553;-25
2022/06/19 10:59:55;;;;;;;3.67;0.95;;;17.20;99.90;;;;;;5077026;28;20049;-24
2022/06/19 11:05:26;;;;;;;6.00;0.88;;;16.80;99.90;;;;;;5076843;28;20059;-24
2022/06/19 11:07:51;;;;;;;4.47;0.88;;;16.70;1.00;;;;;;5075315;28;20045;-24
2022/06/19 11:10:26;;;;;;;6.45;0.98;;;16.70;1.00;;;;;;5076117;28;20040;-24
2022/06/19 11:13:00;;;;;;;5.22;0.50;;;16.80;1.00;;;;;;5076221;28;20056;-24
2022/06/19 11:15:43;;;;;;;5.68;1.05;;;17.00;99.90;;;;;;5076008;28;20437;-24
2022/06/19 11:18:18;;;;;;;5.22;1.17;;;16.90;99.90;;;;;;5076122;28;20055;-24
2022/06/19 11:21:06;;;;;;;5.47;0.88;;;16.80;99.90;;;;;;5076038;28;20040;-24
2022/06/19 11:23:50;;;;;;;5.38;1.13;;;16.40;99.90;;;;;;5075873;28;20048;-24
2022/06/19 11:26:26;;;;;;;5.25;1.25;;;16.30;1.00;;;;;;5076346;28;20059;-24
2022/06/19 11:29:09;;;;;;;9.20;1.13;;;16.10;1.00;;;;;;5075905;28;20044;-24
2022/06/19 11:31:42;;;;;;;5.72;0.88;;;15.90;99.90;;;;;;5076451;28;20048;-24
2022/06/19 11:37:12;;;;;;;9.88;1.42;;;15.70;1.00;;;;;;5076316;28;19943;-24
2022/06/19 11:39:44;;;;;;;4.43;1.10;;;15.60;1.00;;;;;;5075987;28;20048;-24
2022/06/19 11:42:29;;;;;;;6.45;1.17;;;15.50;1.00;;;;;;5076486;28;20062;-24
2022/06/19 11:44:58;;;;;;;6.35;1.20;;;15.50;1.00;;;;;;5075546;28;20140;-24
2022/06/19 11:47:35;;;;;;;7.30;1.20;;;15.50;1.00;;;;;;5075415;28;20044;-24
2022/06/19 11:50:10;;;;;;;9.50;2.40;;;15.60;1.00;;;;;;5074754;28;20052;-24
2022/06/19 11:52:37;;;;;;;6.88;1.63;;;15.60;1.00;;;;;;5075382;28;20058;-24
2022/06/19 11:55:13;;;;;;;7.05;1.55;;;15.60;1.00;;;;;;5075268;28;20102;-24
2022/06/19 11:57:39;;;;;;;6.85;1.00;;;15.60;1.00;;;;;;5074089;28;20080;-24
2022/06/19 12:00:05;;;;;;;7.00;1.35;;;15.70;1.00;;;;;;5075256;28;20048;-24
2022/06/19 12:02:36;;;;;;;6.82;1.20;;;15.70;1.00;;;;;;5075145;28;20044;-24
2022/06/19 12:05:25;;;;;;;7.68;1.20;;;15.70;1.00;;;;;;5075188;28;20135;-24
2022/06/19 12:07:51;;;;;;;6.07;1.00;;;15.70;1.00;;;;;;5074121;28;20143;-24
2022/06/19 12:10:26;;;;;;;9.23;1.58;;;15.70;1.00;;;;;;5074910;28;20486;-25
2022/06/19 12:12:58;;;;;;;6.13;0.93;;;15.70;1.00;;;;;;5074599;28;20048;-24
2022/06/19 12:15:30;;;;;;;7.90;1.65;;;15.90;1.00;;;;;;5075824;28;20044;-24
2022/06/19 12:18:15;;;;;;;5.30;1.73;;;16.20;1.00;;;;;;5074869;28;20491;-24
2022/06/19 12:20:40;;;;;;;4.95;1.35;;;16.60;1.00;;;;;;5074841;28;20131;-25
2022/06/19 12:23:12;;;;;;;7.28;1.42;;;17.00;1.00;;;;;;5074513;28;20135;-25
2022/06/19 12:25:49;;;;;;;6.32;1.77;;;17.50;99.90;;;;;;5074824;28;20045;-25
2022/06/19 12:28:21;;;;;;;6.75;1.17;;;18.00;99.90;;;;;;5073512;28;20056;-25
2022/06/19 12:30:50;;;;;;;7.43;1.20;;;18.60;99.90;;;;;;5074722;28;20051;-25
2022/06/19 12:33:31;;;;;;;5.57;1.10;;;19.00;99.90;;;;;;5074582;28;20056;-25
2022/06/19 12:35:59;;;;;;;5.75;1.00;;;19.30;99.90;;;;;;5074608;28;20048;-25
2022/06/19 12:38:29;;;;;;;4.10;0.68;;;19.40;15.20;;;;;;5074519;28;20059;-25
2022/06/19 12:41:27;;;;;;;2.60;0.65;;;19.60;10.60;;;;;;5073178;28;20077;-25
2022/06/19 12:44:17;;;;;;;7.05;1.45;;;20.10;99.90;;;;;;5074490;28;20127;-25
2022/06/19 12:46:59;;;;;;;2.95;0.95;;;20.40;1.00;;;;;;5075125;28;20040;-25
2022/06/19 12:50:10;;;;;;;7.90;1.55;;;20.50;1.00;;;;;;5057282;28;20080;-25
2022/06/19 12:52:46;;;;;;;7.65;1.33;;;20.20;1.00;;;;;;5074111;28;20055;-25
2022/06/19 12:55:18;;;;;;;8.82;1.42;;;19.70;1.00;;;;;;5074230;28;20052;-25
2022/06/19 12:58:04;;;;;;;6.00;1.80;;;19.50;1.00;;;;;;5074137;28;20486;-25
2022/06/19 13:00:36;;;;;;;7.70;1.60;;;19.20;1.00;;;;;;5073942;28;20041;-25
2022/06/19 13:03:36;;;;;;;9.90;1.45;;;19.20;1.00;;;;;;5074965;28;20040;-25
2022/06/19 13:06:27;;;;;;;7.72;1.58;;;19.20;1.00;;;;;;5071071;28;20425;-25
2022/06/19 13:09:16;;;;;;;6.22;1.35;;;19.00;99.90;;;;;;5072906;28;20098;-25
2022/06/19 13:11:59;;;;;;;6.25;1.38;;;19.30;1.00;;;;;;5072682;28;20044;-25
2022/06/19 13:14:27;;;;;;;;;;;19.50;1.00;;;;;;5074942;28;20437;-26
2022/06/19 13:17:09;;;;;;;6.93;1.10;;;19.60;1.00;;;;;;5073896;28;19926;-25
2022/06/19 13:20:01;;;;;;;6.03;1.40;;;19.60;1.00;;;;;;5074153;28;20040;-25
2022/06/19 13:23:10;;;;;;;5.35;1.15;;;19.40;1.00;;;;;;5074594;28;20393;-25
2022/06/19 13:25:40;;;;;;;7.68;2.15;;;19.70;1.00;;;;;;5073731;28;20057;-25